createdAt,value
2022-09-10T00:04:19.654Z,15.4
2022-09-10T00:09:22.420Z,15.38
2022-09-10T00:14:25.067Z,15.4
2022-09-10T00:19:27.631Z,15.29
2022-09-10T00:24:30.528Z,15.22
2022-09-10T00:29:33.283Z,15.19
2022-09-10T00:34:36.154Z,15.26
2022-09-10T00:39:39.074Z,15.28
2022-09-10T00:44:42.059Z,15.24
2022-09-10T00:49:44.652Z,15.2
2022-09-10T00:54:47.306Z,15.18
2022-09-10T00:59:50.223Z,15.14
2022-09-10T01:04:52.929Z,15.09
2022-09-10T01:09:55.551Z,15.01
2022-09-10T01:14:58.302Z,14.99
2022-09-10T01:20:00.913Z,14.94
2022-09-10T01:25:03.537Z,14.9
2022-09-10T01:30:06.377Z,14.86
2022-09-10T01:35:09.023Z,14.86
2022-09-10T01:40:11.684Z,14.75
2022-09-10T01:45:14.510Z,14.8
2022-09-10T01:50:17.417Z,14.79
2022-09-10T01:55:20.139Z,14.73
2022-09-10T02:00:22.739Z,14.64
2022-09-10T02:05:25.218Z,14.62
2022-09-10T02:10:27.930Z,14.6
2022-09-10T02:15:30.403Z,14.61
2022-09-10T02:20:32.966Z,14.53
2022-09-10T02:25:35.551Z,14.48
2022-09-10T02:30:37.998Z,14.43
2022-09-10T02:35:40.709Z,14.4
2022-09-10T02:40:43.451Z,14.32
2022-09-10T02:45:45.920Z,14.29
2022-09-10T02:50:48.592Z,14.24
2022-09-10T02:55:51.222Z,14.24
2022-09-10T03:00:53.997Z,14.2
2022-09-10T03:05:56.717Z,14.15
2022-09-10T03:10:59.533Z,14.17
2022-09-10T03:16:02.160Z,14.15
2022-09-10T03:21:04.668Z,14.04
2022-09-10T03:31:10.286Z,14.06
2022-09-10T03:41:37.080Z,13.95
2022-09-10T03:46:39.893Z,13.93
2022-09-10T03:56:45.182Z,13.87
2022-09-10T04:01:47.867Z,13.8
2022-09-10T04:06:50.346Z,13.81
2022-09-10T04:11:52.907Z,13.73
2022-09-10T04:16:55.665Z,13.64
2022-09-10T04:21:58.737Z,13.61
2022-09-10T04:32:03.536Z,13.61
2022-09-10T04:37:06.027Z,13.66
2022-09-10T04:42:11.803Z,13.76
2022-09-10T04:52:17.079Z,13.78
2022-09-10T05:02:22.262Z,13.77
2022-09-10T05:07:25.085Z,13.82
2022-09-10T05:12:27.549Z,13.87
2022-09-10T05:17:30.174Z,14
2022-09-10T05:22:37.304Z,14.27
2022-09-10T05:27:35.655Z,14.57
2022-09-10T05:32:38.378Z,14.93
2022-09-10T05:37:41.147Z,15.35
2022-09-10T05:42:43.738Z,15.7
2022-09-10T05:47:46.905Z,16.1
2022-09-10T05:52:49.270Z,16.49
2022-09-10T05:57:51.946Z,16.83
2022-09-10T06:02:54.814Z,16.96
2022-09-10T06:07:57.377Z,17.42
2022-09-10T06:13:00.250Z,17.64
2022-09-10T06:18:02.931Z,18.24
2022-09-10T06:23:05.601Z,18.46
2022-09-10T06:28:08.335Z,18.86
2022-09-10T06:33:10.868Z,19.09
2022-09-10T06:38:13.861Z,19.55
2022-09-10T06:43:16.407Z,19.41
2022-09-10T06:48:47.748Z,19.99
2022-09-10T06:53:30.980Z,19.98
2022-09-10T06:58:33.519Z,20.36
2022-09-10T07:03:36.238Z,20.93
2022-09-10T07:08:39.039Z,21.15
2022-09-10T07:13:41.723Z,21.23
2022-09-10T07:18:44.448Z,21.42
2022-09-10T07:23:47.191Z,22.04
2022-09-10T07:28:49.481Z,21.65
2022-09-10T07:33:52.226Z,22.62
2022-09-10T07:38:55.239Z,22.51
2022-09-10T07:43:57.695Z,22.06
2022-09-10T07:49:00.284Z,22.36
2022-09-10T07:54:03.241Z,22.7
2022-09-10T07:59:06.242Z,22.47
2022-09-10T08:04:09.048Z,23.44
2022-09-10T08:09:11.802Z,22.78
2022-09-10T08:14:14.416Z,22.8
2022-09-10T08:19:17.238Z,22.59
2022-09-10T08:24:20.044Z,23.42
2022-09-10T08:29:22.619Z,22.9
2022-09-10T08:34:25.580Z,22.59
2022-09-10T08:39:31.048Z,23.07
2022-09-10T08:44:33.844Z,23.3
2022-09-10T08:49:36.311Z,22.71
2022-09-10T08:54:39.185Z,23.56
2022-09-10T08:59:44.774Z,23.64
2022-09-10T09:04:47.560Z,23.89
2022-09-10T09:09:50.082Z,23.81
2022-09-10T09:14:52.752Z,24.97
2022-09-10T09:19:55.465Z,24.19
2022-09-10T09:24:58.099Z,23.11
2022-09-10T09:35:03.130Z,23.8
2022-09-10T09:40:06.377Z,24.27
2022-09-10T09:45:08.835Z,24.16
2022-09-10T09:50:11.668Z,24.55
2022-09-10T09:55:15.648Z,25.8
2022-09-10T10:10:22.492Z,25.64
2022-09-10T10:15:25.211Z,24.99
2022-09-10T10:20:27.225Z,24.79
2022-09-10T10:25:30.335Z,25.74
2022-09-10T10:30:33.168Z,25.8
2022-09-10T10:35:35.898Z,25.52
2022-09-10T10:40:38.639Z,25.64
2022-09-10T10:45:41.651Z,25.64
2022-09-10T10:50:44.429Z,26.34
2022-09-10T10:55:47.308Z,25.77
2022-09-10T11:00:49.687Z,25.14
2022-09-10T11:21:00.522Z,25.23
2022-09-10T11:26:03.023Z,24.85
2022-09-10T11:31:05.848Z,24.32
2022-09-10T11:36:08.635Z,24.54
2022-09-10T11:41:11.276Z,24.48
2022-09-10T11:46:13.950Z,23.94
2022-09-10T11:51:22.275Z,24.82
2022-09-10T11:56:25.185Z,24.69
2022-09-10T12:01:27.867Z,24.73
2022-09-10T12:06:30.950Z,25.82
2022-09-10T12:21:38.715Z,24.77
2022-09-10T12:26:41.274Z,24.22
2022-09-10T12:31:46.356Z,23.87
2022-09-10T12:36:49.241Z,24.05
2022-09-10T12:46:54.861Z,24.4
2022-09-10T12:51:57.698Z,24.74
2022-09-10T13:02:03.255Z,24.49
2022-09-10T13:12:08.831Z,24.35
2022-09-10T13:17:11.195Z,24.89
2022-09-10T13:22:14.049Z,24.93
2022-09-10T13:27:16.920Z,24.68
2022-09-10T13:32:19.570Z,24.36
2022-09-10T13:37:22.212Z,24.09
2022-09-10T13:42:24.954Z,23.99
2022-09-10T13:47:27.427Z,23.73
2022-09-10T13:52:30.005Z,23.3
2022-09-10T13:57:32.591Z,22.88
2022-09-10T14:02:35.350Z,23
2022-09-10T14:07:37.912Z,22.7
2022-09-10T14:12:40.588Z,22.22
2022-09-10T14:22:48.522Z,21.83
2022-09-10T14:27:54.753Z,21.85
2022-09-10T14:32:53.721Z,22.06
2022-09-10T14:37:56.667Z,22.25
2022-09-10T14:42:59.520Z,22.55
2022-09-10T14:53:07.461Z,22.45
2022-09-10T14:58:09.973Z,22.33
2022-09-10T15:03:12.619Z,22.28
2022-09-10T15:13:18.226Z,22.43
2022-09-10T15:18:20.863Z,22.38
2022-09-10T15:28:26.342Z,21.97
2022-09-10T15:38:31.442Z,22.48
2022-09-10T15:43:34.255Z,22.73
2022-09-10T15:48:37.157Z,22.84
2022-09-10T15:53:40.024Z,22.85
2022-09-10T16:03:45.269Z,22.67
2022-09-10T16:08:47.929Z,22.51
2022-09-10T16:14:03.678Z,22.58
2022-09-10T16:19:01.997Z,22.56
2022-09-10T16:24:19.541Z,22.3
2022-09-10T16:34:25.020Z,21.98
2022-09-10T16:39:27.416Z,21.81
2022-09-10T16:44:35.734Z,21.64
2022-09-10T16:49:38.727Z,21.59
2022-09-10T16:54:41.257Z,21.44
2022-09-10T16:59:43.974Z,21.36
2022-09-10T17:04:46.467Z,21.11
2022-09-10T17:09:49.342Z,21.11
2022-09-10T17:14:57.115Z,20.8
2022-09-10T17:19:59.719Z,20.57
2022-09-10T17:25:02.920Z,20.26
2022-09-10T17:30:05.469Z,20.08
2022-09-10T17:40:10.772Z,19.72
2022-09-10T17:45:13.281Z,19.5
2022-09-10T17:50:15.892Z,19.47
2022-09-10T17:55:19.743Z,19.36
2022-09-10T18:00:25.169Z,19.31
2022-09-10T18:15:32.579Z,19.03
2022-09-10T18:25:37.709Z,18.77
2022-09-10T18:35:43.049Z,18.76
2022-09-10T18:40:45.515Z,18.75
2022-09-10T18:45:48.093Z,18.7
2022-09-10T18:50:50.754Z,18.76
2022-09-10T18:55:53.280Z,18.73
2022-09-10T19:05:59.454Z,18.57
2022-09-10T19:11:02.120Z,18.52
2022-09-10T19:16:04.700Z,18.46
2022-09-10T19:21:07.187Z,18.38
2022-09-10T19:26:09.828Z,18.28
2022-09-10T19:31:12.357Z,18.2
2022-09-10T19:36:14.964Z,18.11
2022-09-10T19:41:17.510Z,18.05
2022-09-10T19:46:22.844Z,17.85
2022-09-10T20:01:30.477Z,17.6
2022-09-10T20:06:33.009Z,17.58
2022-09-10T20:21:41.137Z,17.59
2022-09-10T20:26:43.838Z,17.62
2022-09-10T20:31:46.515Z,17.56
2022-09-10T20:36:49.162Z,17.48
2022-09-10T20:41:52.020Z,17.45
2022-09-10T20:46:54.727Z,17.29
2022-09-10T20:51:57.499Z,17.07
2022-09-10T20:57:00.178Z,17.03
2022-09-10T21:02:03.016Z,17.1
2022-09-10T21:07:05.441Z,17.01
2022-09-10T21:17:10.755Z,16.99
2022-09-10T21:22:13.703Z,17
2022-09-10T21:27:17.102Z,17.05
2022-09-10T21:32:19.675Z,16.97
2022-09-10T21:42:25.252Z,16.94
2022-09-10T21:47:27.680Z,16.84
2022-09-10T21:52:30.396Z,16.8
2022-09-10T21:57:33.123Z,16.79
2022-09-10T22:02:35.920Z,16.78
2022-09-10T22:07:38.782Z,16.79
2022-09-10T22:12:43.177Z,16.8
2022-09-10T22:17:45.740Z,16.84
2022-09-10T22:22:48.623Z,16.76
2022-09-10T22:27:51.313Z,16.73
2022-09-10T22:32:54.029Z,16.72
2022-09-10T22:37:56.624Z,16.78
2022-09-10T22:42:59.340Z,16.73
2022-09-10T22:58:06.941Z,16.53
2022-09-10T23:03:09.642Z,16.57
2022-09-10T23:08:12.119Z,16.54
2022-09-10T23:13:14.848Z,16.53
2022-09-10T23:18:17.653Z,16.48
2022-09-10T23:23:20.284Z,16.44
2022-09-10T23:28:23.153Z,16.41
2022-09-10T23:33:25.652Z,16.36
2022-09-10T23:38:28.463Z,16.33
2022-09-10T23:43:31.044Z,16.33
2022-09-10T23:48:33.642Z,16.4
2022-09-10T23:53:36.332Z,16.36
2022-09-10T23:58:39.089Z,16.29
